createdAt,value
2016-10-31T00:00:34.062Z,63.67
2016-10-31T00:01:34.400Z,63.96
2016-10-31T00:02:34.413Z,63.67
2016-10-31T00:03:34.117Z,63.48
2016-10-31T00:04:34.137Z,63.96
2016-10-31T00:05:34.474Z,63.96
2016-10-31T00:06:34.489Z,63.2
2016-10-31T00:07:34.507Z,63.16
2016-10-31T00:08:34.214Z,63.57
2016-10-31T00:09:34.576Z,63.16
2016-10-31T00:10:34.251Z,62.43
2016-10-31T00:11:34.268Z,62.81
2016-10-31T00:12:34.287Z,62.62
2016-10-31T00:13:34.327Z,63.45
2016-10-31T00:14:34.641Z,64.21
2016-10-31T00:15:34.344Z,64.21
2016-10-31T00:16:34.681Z,63.57
2016-10-31T00:17:34.698Z,64.15
2016-10-31T00:18:34.402Z,64.12
2016-10-31T00:19:34.419Z,63.76
2016-10-31T00:20:34.480Z,63.45
2016-10-31T00:21:34.664Z,63.39
2016-10-31T00:22:34.793Z,63.57
2016-10-31T00:23:34.496Z,63.2
2016-10-31T00:24:34.858Z,63.39
2016-10-31T00:25:34.568Z,62.88
2016-10-31T00:26:34.867Z,62.4
2016-10-31T00:27:34.572Z,62.49
2016-10-31T00:28:34.923Z,62.88
2016-10-31T00:29:34.648Z,62.78
2016-10-31T00:30:34.630Z,62.97
2016-10-31T00:31:34.967Z,63.35
2016-10-31T00:32:34.667Z,62.78
2016-10-31T00:33:35.002Z,62.88
2016-10-31T00:34:35.020Z,63.45
2016-10-31T00:35:35.077Z,63.54
2016-10-31T00:36:34.770Z,62.97
2016-10-31T00:37:34.775Z,63.35
2016-10-31T00:38:35.115Z,63.54
2016-10-31T00:39:34.800Z,63.83
2016-10-31T00:40:35.137Z,64.02
2016-10-31T00:41:35.153Z,63.92
2016-10-31T00:42:34.856Z,64.12
2016-10-31T00:43:34.892Z,62.88
2016-10-31T00:44:35.212Z,63.64
2016-10-31T00:45:35.230Z,63.83
2016-10-31T00:46:34.932Z,64.21
2016-10-31T00:47:34.949Z,64.12
2016-10-31T00:48:35.284Z,63.83
2016-10-31T00:49:35.301Z,64.21
2016-10-31T00:50:35.013Z,63.45
2016-10-31T00:51:35.046Z,63.83
2016-10-31T00:52:35.362Z,64.21
2016-10-31T00:53:35.065Z,63.73
2016-10-31T00:54:35.083Z,64.12
2016-10-31T00:55:35.415Z,63.54
2016-10-31T00:56:35.119Z,64.21
2016-10-31T00:57:35.456Z,63.83
2016-10-31T00:58:35.169Z,64.4
2016-10-31T00:59:35.493Z,64.02
2016-10-31T01:00:35.196Z,63.54
2016-10-31T01:01:35.535Z,63.26
2016-10-31T01:02:35.235Z,63.64
2016-10-31T01:03:35.568Z,63.92
2016-10-31T01:04:35.586Z,64.21
2016-10-31T01:05:35.604Z,64.69
2016-10-31T01:06:35.328Z,64.69
2016-10-31T01:07:35.641Z,64.21
2016-10-31T01:08:35.348Z,64.4
2016-10-31T01:09:35.363Z,64.78
2016-10-31T01:10:35.697Z,64.69
2016-10-31T01:11:35.404Z,65.26
2016-10-31T01:12:35.420Z,64.59
2016-10-31T01:13:35.451Z,64.59
2016-10-31T01:14:35.777Z,64.5
2016-10-31T01:15:35.478Z,64.88
2016-10-31T01:16:35.498Z,64.31
2016-10-31T01:17:35.832Z,64.31
2016-10-31T01:18:35.850Z,63.83
2016-10-31T01:19:35.870Z,64.12
2016-10-31T01:20:35.572Z,64.4
2016-10-31T01:21:35.924Z,64.88
2016-10-31T01:22:35.648Z,64.88
2016-10-31T01:23:35.946Z,64.88
2016-10-31T01:24:35.981Z,65.26
2016-10-31T01:25:35.670Z,65.36
2016-10-31T01:26:36.005Z,65.17
2016-10-31T01:27:36.025Z,65.17
2016-10-31T01:28:35.732Z,64.59
2016-10-31T01:29:36.057Z,64.88
2016-10-31T01:30:35.760Z,65.26
2016-10-31T01:31:35.779Z,65.17
2016-10-31T01:32:35.800Z,65.17
2016-10-31T01:33:35.817Z,64.72
2016-10-31T01:34:35.836Z,64.02
2016-10-31T01:35:36.171Z,64.21
2016-10-31T01:36:36.207Z,64.12
2016-10-31T01:37:36.204Z,62.97
2016-10-31T01:38:35.911Z,63.35
2016-10-31T01:39:35.930Z,63.73
2016-10-31T01:40:36.266Z,63.54
2016-10-31T01:41:35.971Z,63.16
2016-10-31T01:42:35.987Z,63.45
2016-10-31T01:43:36.015Z,64.02
2016-10-31T01:44:36.026Z,64.02
2016-10-31T01:45:36.358Z,64.02
2016-10-31T01:46:36.060Z,63.07
2016-10-31T01:47:36.079Z,63.45
2016-10-31T01:48:36.415Z,63.26
2016-10-31T01:49:36.436Z,63.35
2016-10-31T01:50:36.137Z,63.54
2016-10-31T01:51:36.484Z,63.54
2016-10-31T01:52:36.192Z,63.73
2016-10-31T01:53:36.192Z,64.12
2016-10-31T01:54:36.210Z,63.92
2016-10-31T01:55:36.553Z,63.54
2016-10-31T01:56:36.251Z,63.54
2016-10-31T01:57:36.268Z,64.21
2016-10-31T01:58:36.290Z,64.21
2016-10-31T01:59:36.306Z,63.54
2016-10-31T02:00:36.327Z,64.02
2016-10-31T02:01:36.660Z,63.83
2016-10-31T02:02:36.361Z,63.35
2016-10-31T02:03:36.382Z,64.02
2016-10-31T02:04:36.401Z,64.02
2016-10-31T02:05:36.732Z,64.02
2016-10-31T02:06:36.444Z,63.73
2016-10-31T02:07:36.772Z,63.83
2016-10-31T02:08:36.788Z,64.12
2016-10-31T02:09:36.496Z,63.92
2016-10-31T02:10:36.515Z,63.54
2016-10-31T02:11:36.532Z,63.45
2016-10-31T02:12:36.866Z,63.35
2016-10-31T02:13:36.888Z,63.45
2016-10-31T02:14:36.593Z,63.64
2016-10-31T02:15:36.925Z,63.26
2016-10-31T02:16:36.943Z,63.45
2016-10-31T02:17:36.643Z,63.45
2016-10-31T02:18:36.982Z,63.26
2016-10-31T02:19:36.999Z,63.39
2016-10-31T02:20:37.019Z,64.21
2016-10-31T02:21:37.046Z,63.35
2016-10-31T02:22:36.738Z,62.97
2016-10-31T02:23:36.758Z,62.97
2016-10-31T02:24:36.778Z,63.54
2016-10-31T02:25:36.833Z,64.21
2016-10-31T02:26:36.815Z,63.92
2016-10-31T02:27:37.150Z,63.26
2016-10-31T02:28:36.852Z,64.12
2016-10-31T02:29:36.872Z,64.31
2016-10-31T02:30:37.209Z,63.92
2016-10-31T02:31:37.224Z,63.35
2016-10-31T02:32:37.259Z,64.02
2016-10-31T02:33:36.950Z,63.83
2016-10-31T02:34:37.285Z,64.02
2016-10-31T02:35:36.985Z,64.21
2016-10-31T02:36:37.327Z,64.02
2016-10-31T02:37:37.341Z,63.54
2016-10-31T02:38:37.044Z,63.35
2016-10-31T02:39:37.063Z,63.07
2016-10-31T02:40:37.119Z,63.35
2016-10-31T02:41:37.103Z,63.26
2016-10-31T02:42:37.120Z,63.54
2016-10-31T02:43:37.459Z,63.64
2016-10-31T02:44:37.160Z,63.92
2016-10-31T02:45:37.492Z,64.21
2016-10-31T02:46:37.512Z,63.35
2016-10-31T02:47:37.214Z,63.07
2016-10-31T02:48:37.234Z,63.16
2016-10-31T02:49:37.570Z,63.73
2016-10-31T02:50:37.588Z,63.07
2016-10-31T02:51:37.295Z,63.64
2016-10-31T02:52:37.629Z,63.35
2016-10-31T02:53:37.330Z,63.07
2016-10-31T02:54:37.349Z,63.07
2016-10-31T02:55:37.686Z,63.07
2016-10-31T02:56:37.703Z,62.88
2016-10-31T02:57:37.405Z,63.16
2016-10-31T02:58:37.748Z,63.07
2016-10-31T02:59:37.757Z,63.26
2016-10-31T03:00:37.463Z,63.39
2016-10-31T03:01:37.797Z,63.45
2016-10-31T03:02:37.503Z,62.71
2016-10-31T03:03:37.839Z,63.1
2016-10-31T03:04:37.855Z,63.54
2016-10-31T03:05:37.875Z,63.45
2016-10-31T03:06:37.893Z,63.54
2016-10-31T03:07:37.598Z,63.54
2016-10-31T03:08:37.930Z,64.21
2016-10-31T03:09:37.952Z,63.45
2016-10-31T03:10:37.660Z,63.35
2016-10-31T03:11:37.673Z,63.73
2016-10-31T03:12:37.694Z,64.02
2016-10-31T03:13:37.714Z,64.31
2016-10-31T03:14:38.047Z,64.4
2016-10-31T03:15:38.066Z,64.02
2016-10-31T03:16:38.084Z,63.35
2016-10-31T03:17:37.789Z,62.88
2016-10-31T03:18:37.806Z,63.45
2016-10-31T03:19:37.825Z,63.45
2016-10-31T03:20:38.160Z,64.02
2016-10-31T03:21:38.187Z,62.78
2016-10-31T03:22:37.885Z,63.26
2016-10-31T03:23:38.216Z,63.35
2016-10-31T03:24:37.922Z,63.26
2016-10-31T03:25:37.941Z,62.97
2016-10-31T03:26:38.275Z,62.97
2016-10-31T03:27:38.332Z,62.97
2016-10-31T03:28:38.316Z,63.2
2016-10-31T03:29:38.368Z,62.15
2016-10-31T03:30:38.037Z,62.02
2016-10-31T03:31:38.370Z,62.49
2016-10-31T03:32:38.387Z,62.4
2016-10-31T03:33:38.408Z,62.3
2016-10-31T03:34:38.113Z,62.49
2016-10-31T03:35:38.447Z,62.21
2016-10-31T03:36:38.471Z,62.78
2016-10-31T03:37:38.485Z,62.21
2016-10-31T03:38:38.189Z,62.02
2016-10-31T03:39:38.206Z,62.21
2016-10-31T03:40:38.227Z,62.68
2016-10-31T03:41:38.248Z,62.02
2016-10-31T03:42:38.580Z,62.59
2016-10-31T03:43:38.599Z,62.49
2016-10-31T03:44:38.303Z,63.45
2016-10-31T03:45:38.321Z,63.26
2016-10-31T03:46:38.338Z,62.59
2016-10-31T03:47:38.359Z,62.71
2016-10-31T03:48:38.693Z,62.78
2016-10-31T03:49:38.396Z,62.24
2016-10-31T03:50:38.416Z,62.11
2016-10-31T03:51:38.749Z,61.57
2016-10-31T03:52:38.454Z,61.95
2016-10-31T03:53:38.788Z,62.3
2016-10-31T03:54:38.493Z,62.02
2016-10-31T03:55:38.830Z,61.83
2016-10-31T03:56:38.848Z,62.4
2016-10-31T03:57:38.550Z,62.02
2016-10-31T03:58:38.567Z,62.59
2016-10-31T03:59:38.594Z,61.83
2016-10-31T04:00:38.922Z,62.49
2016-10-31T04:01:38.623Z,62.68
2016-10-31T04:02:38.645Z,62.59
2016-10-31T04:03:38.662Z,62.68
2016-10-31T04:04:38.682Z,62.49
2016-10-31T04:05:38.701Z,62.97
2016-10-31T04:06:39.037Z,62.88
2016-10-31T04:07:38.741Z,62.78
2016-10-31T04:08:38.756Z,63.26
2016-10-31T04:09:38.778Z,62.4
2016-10-31T04:10:38.797Z,62.21
2016-10-31T04:11:38.816Z,62.3
2016-10-31T04:12:38.833Z,62.21
2016-10-31T04:13:38.851Z,62.21
2016-10-31T04:14:39.187Z,62.4
2016-10-31T04:15:38.890Z,62.3
2016-10-31T04:16:39.223Z,62.4
2016-10-31T04:17:38.930Z,62.21
2016-10-31T04:18:38.949Z,61.63
2016-10-31T04:19:38.967Z,61.83
2016-10-31T04:20:38.984Z,62.3
2016-10-31T04:21:39.321Z,62.11
2016-10-31T04:22:39.338Z,62.02
2016-10-31T04:23:39.360Z,62.21
2016-10-31T04:24:39.377Z,62.02
2016-10-31T04:25:39.399Z,62.02
2016-10-31T04:26:39.417Z,61.63
2016-10-31T04:27:39.432Z,61.44
2016-10-31T04:28:39.453Z,61.92
2016-10-31T04:29:39.472Z,61.73
2016-10-31T04:30:39.177Z,61.44
2016-10-31T04:31:39.197Z,61.63
2016-10-31T04:32:39.212Z,61.44
2016-10-31T04:33:39.231Z,61.63
2016-10-31T04:34:39.563Z,61.16
2016-10-31T04:35:39.585Z,61.25
2016-10-31T04:36:39.288Z,60.3
2016-10-31T04:37:39.625Z,60.97
2016-10-31T04:38:39.324Z,61.44
2016-10-31T04:39:39.345Z,61.25
2016-10-31T04:40:39.362Z,61.35
2016-10-31T04:41:39.385Z,60.68
2016-10-31T04:42:39.716Z,60.78
2016-10-31T04:43:39.419Z,61.63
2016-10-31T04:44:39.438Z,61.16
2016-10-31T04:45:39.772Z,61.16
2016-10-31T04:46:39.476Z,60.58
2016-10-31T04:47:39.495Z,60.49
2016-10-31T04:48:39.512Z,60.58
2016-10-31T04:49:39.567Z,60.21
2016-10-31T04:50:39.550Z,60.97
2016-10-31T04:51:39.885Z,61.54
2016-10-31T04:52:39.902Z,61.22
2016-10-31T04:53:39.604Z,61.44
2016-10-31T04:54:39.624Z,60.68
2016-10-31T04:55:39.645Z,61.54
2016-10-31T04:56:39.979Z,60.97
2016-10-31T04:57:39.680Z,60.78
2016-10-31T04:58:39.701Z,61.22
2016-10-31T04:59:40.036Z,61.6
2016-10-31T05:00:40.056Z,61.6
2016-10-31T05:01:40.072Z,61.51
2016-10-31T05:02:40.094Z,61.41
2016-10-31T05:03:39.795Z,61.51
2016-10-31T05:04:40.129Z,61.99
2016-10-31T05:05:40.148Z,61.6
2016-10-31T05:06:39.850Z,61.13
2016-10-31T05:07:39.868Z,61.7
2016-10-31T05:08:39.889Z,62.18
2016-10-31T05:09:39.906Z,62.08
2016-10-31T05:10:40.238Z,61.89
2016-10-31T05:11:39.941Z,62.08
2016-10-31T05:12:39.965Z,62.37
2016-10-31T05:13:40.298Z,61.8
2016-10-31T05:14:40.000Z,61.13
2016-10-31T05:15:40.334Z,62.27
2016-10-31T05:16:40.036Z,62.08
2016-10-31T05:17:40.375Z,61.41
2016-10-31T05:18:40.076Z,62.08
2016-10-31T05:19:40.098Z,62.75
2016-10-31T05:20:40.113Z,62.27
2016-10-31T05:21:40.130Z,61.99
2016-10-31T05:22:40.462Z,62.18
2016-10-31T05:23:40.165Z,61.89
2016-10-31T05:24:40.187Z,62.18
2016-10-31T05:25:40.205Z,62.18
2016-10-31T05:26:40.538Z,62.18
2016-10-31T05:27:40.556Z,61.6
2016-10-31T05:28:40.574Z,61.8
2016-10-31T05:29:40.275Z,62.56
2016-10-31T05:30:40.610Z,62.27
2016-10-31T05:31:40.314Z,62.27
2016-10-31T05:32:40.648Z,62.08
2016-10-31T05:33:40.668Z,62.56
2016-10-31T05:34:40.686Z,62.18
2016-10-31T05:35:40.435Z,61.99
2016-10-31T05:36:40.423Z,62.18
2016-10-31T05:37:40.427Z,62.18
2016-10-31T05:38:40.446Z,61.8
2016-10-31T05:39:40.784Z,62.62
2016-10-31T05:40:40.796Z,62.56
2016-10-31T05:41:40.812Z,62.72
2016-10-31T05:42:40.518Z,63.29
2016-10-31T05:43:40.537Z,62.62
2016-10-31T05:44:40.873Z,62.65
2016-10-31T05:45:40.888Z,62.62
2016-10-31T05:46:40.906Z,62.24
2016-10-31T05:47:40.926Z,62.56
2016-10-31T05:48:40.944Z,61.96
2016-10-31T05:49:40.644Z,62.34
2016-10-31T05:50:40.667Z,62.62
2016-10-31T05:51:40.681Z,62.34
2016-10-31T05:52:40.716Z,63.2
2016-10-31T05:53:41.051Z,63.29
2016-10-31T05:54:40.739Z,63.2
2016-10-31T05:55:40.753Z,62.91
2016-10-31T05:56:41.091Z,62.52
2016-10-31T05:57:40.793Z,62.43
2016-10-31T05:58:41.127Z,62.05
2016-10-31T05:59:40.827Z,62.72
2016-10-31T06:00:40.846Z,62.34
2016-10-31T06:01:40.871Z,62.62
2016-10-31T06:02:41.207Z,62.52
2016-10-31T06:03:40.899Z,62.52
2016-10-31T06:04:41.232Z,62.52
2016-10-31T06:05:40.936Z,62.72
2016-10-31T06:06:40.959Z,62.52
2016-10-31T06:07:40.985Z,63.48
2016-10-31T06:08:40.991Z,62.72
2016-10-31T06:09:41.361Z,62.81
2016-10-31T06:10:41.029Z,63.2
2016-10-31T06:11:41.364Z,62.91
2016-10-31T06:12:41.061Z,63.39
2016-10-31T06:13:41.401Z,62.97
2016-10-31T06:14:41.105Z,63.07
2016-10-31T06:15:41.117Z,63.83
2016-10-31T06:16:41.174Z,63.73
2016-10-31T06:17:41.468Z,63.45
2016-10-31T06:18:41.488Z,64.31
2016-10-31T06:19:41.509Z,64.12
2016-10-31T06:20:41.520Z,63.64
2016-10-31T06:21:41.241Z,63.54
2016-10-31T06:22:41.559Z,64.31
2016-10-31T06:23:41.582Z,64.21
2016-10-31T06:24:41.612Z,64.12
2016-10-31T06:25:41.615Z,63.73
2016-10-31T06:26:41.314Z,64.02
2016-10-31T06:27:41.332Z,63.54
2016-10-31T06:28:41.366Z,64.21
2016-10-31T06:29:41.398Z,63.64
2016-10-31T06:30:41.386Z,64.12
2016-10-31T06:31:41.720Z,63.73
2016-10-31T06:32:41.737Z,64.4
2016-10-31T06:33:41.759Z,64.31
2016-10-31T06:34:41.774Z,64.78
2016-10-31T06:35:41.788Z,64.02
2016-10-31T06:36:41.806Z,64.21
2016-10-31T06:37:41.825Z,64.59
2016-10-31T06:38:41.525Z,64.59
2016-10-31T06:39:41.860Z,65.07
2016-10-31T06:40:41.561Z,64.5
2016-10-31T06:41:41.896Z,64.5
2016-10-31T06:42:41.912Z,64.97
2016-10-31T06:43:41.934Z,64.97
2016-10-31T06:44:41.653Z,65.36
2016-10-31T06:45:41.651Z,64.97
2016-10-31T06:46:41.982Z,65.07
2016-10-31T06:47:41.683Z,65.61
2016-10-31T06:48:42.016Z,65.89
2016-10-31T06:49:41.721Z,66.18
2016-10-31T06:50:41.735Z,65.7
2016-10-31T06:51:42.071Z,66.37
2016-10-31T06:52:41.774Z,65.51
2016-10-31T06:53:42.106Z,65.03
2016-10-31T06:54:42.131Z,65.32
2016-10-31T06:55:41.827Z,65.51
2016-10-31T06:56:41.841Z,65.51
2016-10-31T06:57:41.861Z,65.8
2016-10-31T06:58:41.878Z,65.61
2016-10-31T06:59:42.212Z,65.51
2016-10-31T07:00:42.227Z,65.89
2016-10-31T07:01:41.932Z,65.92
2016-10-31T07:02:42.264Z,65.73
2016-10-31T07:03:42.285Z,65.92
2016-10-31T07:04:41.986Z,65.83
2016-10-31T07:05:42.318Z,66.27
2016-10-31T07:06:42.370Z,66.11
2016-10-31T07:07:42.036Z,65.64
2016-10-31T07:08:42.371Z,66.11
2016-10-31T07:09:42.071Z,65.92
2016-10-31T07:10:42.404Z,65.83
2016-10-31T07:11:42.107Z,65.36
2016-10-31T07:12:42.124Z,65.83
2016-10-31T07:13:42.461Z,66.11
2016-10-31T07:14:42.476Z,65.73
2016-10-31T07:15:42.177Z,66.02
2016-10-31T07:16:42.521Z,64.97
2016-10-31T07:17:42.213Z,65.26
2016-10-31T07:18:42.229Z,64.97
2016-10-31T07:19:42.565Z,65.83
2016-10-31T07:20:42.270Z,66.21
2016-10-31T07:21:42.602Z,65.16
2016-10-31T07:22:42.620Z,64.87
2016-10-31T07:23:42.646Z,65.26
2016-10-31T07:24:42.339Z,65.07
2016-10-31T07:25:42.353Z,64.59
2016-10-31T07:26:42.378Z,64.59
2016-10-31T07:27:42.392Z,65
2016-10-31T07:28:42.743Z,63.1
2016-10-31T07:29:42.741Z,62.18
2016-10-31T07:30:42.445Z,58.99
2016-10-31T07:31:42.801Z,56.41
2016-10-31T07:32:42.483Z,55.87
2016-10-31T07:33:42.816Z,54.18
2016-10-31T07:34:42.526Z,52.58
2016-10-31T07:35:42.867Z,51.46
2016-10-31T07:36:42.560Z,49.66
2016-10-31T07:37:42.889Z,48.07
2016-10-31T07:38:42.595Z,47.71
2016-10-31T07:39:42.617Z,45.02
2016-10-31T07:40:42.635Z,44.09
2016-10-31T07:41:42.656Z,43.73
2016-10-31T07:42:42.992Z,41.44
2016-10-31T07:43:43.026Z,41.66
2016-10-31T07:44:42.719Z,40.6
2016-10-31T07:45:43.057Z,40.99
2016-10-31T07:46:43.083Z,39.56
2016-10-31T07:47:42.783Z,38.34
2016-10-31T07:48:42.804Z,38.74
2016-10-31T07:49:42.828Z,37.99
2016-10-31T07:50:42.853Z,36.93
2016-10-31T07:51:42.872Z,37.32
2016-10-31T07:52:42.898Z,37.87
2016-10-31T07:53:43.235Z,38.09
2016-10-31T07:54:42.980Z,37.22
2016-10-31T07:55:43.283Z,38.09
2016-10-31T07:56:42.991Z,37.68
2016-10-31T07:57:43.335Z,36.33
2016-10-31T07:58:43.374Z,36.64
2016-10-31T07:59:43.387Z,36.93
2016-10-31T08:00:43.091Z,35.22
2016-10-31T08:01:43.428Z,34.64
2016-10-31T08:02:43.457Z,34.08
2016-10-31T08:03:43.477Z,33.98
2016-10-31T08:04:43.507Z,34.06
2016-10-31T08:05:43.211Z,33.89
2016-10-31T08:06:43.554Z,33.98
2016-10-31T08:07:43.739Z,34.08
2016-10-31T08:08:43.601Z,34.06
2016-10-31T08:09:43.635Z,35.22
2016-10-31T08:10:43.650Z,35.22
2016-10-31T08:11:43.362Z,35.22
2016-10-31T08:12:43.383Z,36.07
2016-10-31T08:13:43.407Z,35.87
2016-10-31T08:14:43.434Z,36.64
2016-10-31T08:15:43.461Z,36.35
2016-10-31T08:16:43.485Z,36.25
2016-10-31T08:17:43.506Z,36.15
2016-10-31T08:18:43.531Z,35.85
2016-10-31T08:19:43.556Z,36.05
2016-10-31T08:20:43.895Z,36.43
2016-10-31T08:21:43.922Z,37.27
2016-10-31T08:22:43.642Z,37.18
2016-10-31T08:23:43.655Z,37.01
2016-10-31T08:24:43.679Z,36.35
2016-10-31T08:25:44.016Z,35.02
2016-10-31T08:26:43.727Z,35.68
2016-10-31T08:27:43.752Z,36.16
2016-10-31T08:28:44.091Z,35.7
2016-10-31T08:29:43.803Z,34.06
2016-10-31T08:30:44.146Z,32.54
2016-10-31T08:31:43.871Z,32.73
2016-10-31T08:32:44.192Z,32.47
2016-10-31T08:33:44.232Z,31.41
2016-10-31T08:34:43.923Z,30.29
2016-10-31T08:35:44.265Z,30.3
2016-10-31T08:36:44.327Z,30.67
2016-10-31T08:37:44.319Z,30.87
2016-10-31T08:38:44.339Z,31.12
2016-10-31T08:39:44.046Z,31.9
2016-10-31T08:40:44.387Z,33.79
2016-10-31T08:41:44.099Z,33.98
2016-10-31T08:42:44.435Z,33.69
2016-10-31T08:43:44.144Z,33.12
2016-10-31T08:44:44.488Z,32.81
2016-10-31T08:45:44.515Z,33.29
2016-10-31T08:46:44.535Z,33.97
2016-10-31T08:47:44.245Z,35.58
2016-10-31T08:48:44.271Z,34.64
2016-10-31T08:49:44.304Z,35.2
2016-10-31T08:50:44.639Z,36.15
2016-10-31T08:51:44.361Z,37.1
2016-10-31T08:52:44.375Z,36.82
2016-10-31T08:53:44.735Z,37.18
2016-10-31T08:54:44.734Z,38.43
2016-10-31T08:55:44.443Z,36.53
2016-10-31T08:56:44.468Z,37.08
2016-10-31T08:57:44.491Z,36.91
2016-10-31T08:58:44.833Z,36.15
2016-10-31T08:59:44.854Z,36.6
2016-10-31T09:00:44.567Z,37.37
2016-10-31T09:01:44.907Z,36.8
2016-10-31T09:02:44.616Z,36.24
2016-10-31T09:03:44.639Z,36.82
2016-10-31T09:04:44.978Z,36.7
2016-10-31T09:05:45.005Z,37.37
2016-10-31T09:06:45.052Z,36.82
2016-10-31T09:07:45.053Z,36.8
2016-10-31T09:08:44.797Z,36.99
2016-10-31T09:09:44.789Z,37.37
2016-10-31T09:10:44.861Z,37.66
2016-10-31T09:11:45.151Z,37.97
2016-10-31T09:12:45.178Z,39.03
2016-10-31T09:13:44.881Z,37.1
2016-10-31T09:14:45.218Z,36.82
2016-10-31T09:15:45.245Z,38.04
2016-10-31T09:16:45.266Z,38.22
2016-10-31T09:17:45.292Z,37.95
2016-10-31T09:18:45.017Z,38.72
2016-10-31T09:19:45.024Z,38.14
2016-10-31T09:20:45.045Z,38.14
2016-10-31T09:21:45.071Z,38.72
2016-10-31T09:22:45.410Z,39.01
2016-10-31T09:23:45.433Z,39.66
2016-10-31T09:24:45.460Z,40.55
2016-10-31T09:25:45.482Z,39.11
2016-10-31T09:26:45.189Z,39.01
2016-10-31T09:27:45.532Z,38.62
2016-10-31T09:28:45.240Z,38.24
2016-10-31T09:29:45.616Z,39.01
2016-10-31T09:30:45.320Z,39.58
2016-10-31T09:31:45.633Z,39.2
2016-10-31T09:32:45.348Z,39.31
2016-10-31T09:33:45.676Z,38.45
2016-10-31T09:34:45.385Z,39.12
2016-10-31T09:35:45.721Z,37.01
2016-10-31T09:36:45.754Z,37.87
2016-10-31T09:37:45.769Z,36.72
2016-10-31T09:38:45.792Z,37.01
2016-10-31T09:39:45.851Z,37.49
2016-10-31T09:40:45.528Z,37.2
2016-10-31T09:41:45.868Z,37.39
2016-10-31T09:42:45.573Z,37.47
2016-10-31T09:43:45.599Z,37.95
2016-10-31T09:44:45.622Z,39.11
2016-10-31T09:45:45.650Z,39.03
2016-10-31T09:46:45.988Z,38.26
2016-10-31T09:47:45.696Z,38.07
2016-10-31T09:48:45.720Z,38.26
2016-10-31T09:49:46.055Z,38.53
2016-10-31T09:50:46.085Z,39.12
2016-10-31T09:51:46.105Z,38.74
2016-10-31T09:52:46.129Z,36.91
2016-10-31T09:53:45.838Z,37.18
2016-10-31T09:54:46.179Z,37.85
2016-10-31T09:55:45.886Z,39.95
2016-10-31T09:56:45.918Z,39.11
2016-10-31T09:57:45.945Z,40.25
2016-10-31T09:58:45.957Z,38.24
2016-10-31T09:59:45.983Z,38.34
2016-10-31T10:00:46.324Z,38.34
2016-10-31T10:01:46.032Z,38.24
2016-10-31T10:02:46.369Z,40.05
2016-10-31T10:03:46.392Z,40.43
2016-10-31T10:04:46.105Z,39.87
2016-10-31T10:05:46.442Z,38.14
2016-10-31T10:06:46.466Z,38.41
2016-10-31T10:07:46.175Z,39.95
2016-10-31T10:08:46.200Z,39.18
2016-10-31T10:09:46.223Z,38.7
2016-10-31T10:10:46.248Z,38.62
2016-10-31T10:11:46.593Z,38.04
2016-10-31T10:12:46.609Z,38.53
2016-10-31T10:13:46.321Z,37.95
2016-10-31T10:14:46.341Z,39.58
2016-10-31T10:15:46.685Z,38.62
2016-10-31T10:16:46.706Z,38.34
2016-10-31T10:17:46.413Z,38.79
2016-10-31T10:18:46.755Z,38.62
2016-10-31T10:19:46.466Z,39.01
2016-10-31T10:20:46.503Z,39.97
2016-10-31T10:21:46.513Z,38.07
2016-10-31T10:22:46.909Z,37.1
2016-10-31T10:23:46.557Z,36.43
2016-10-31T10:24:46.583Z,36.72
2016-10-31T10:25:46.616Z,37.1
2016-10-31T10:26:46.946Z,38.16
2016-10-31T10:27:46.656Z,36.15
2016-10-31T10:28:46.996Z,37.1
2016-10-31T10:29:46.703Z,36.91
2016-10-31T10:30:47.046Z,36.82
2016-10-31T10:31:46.751Z,36.72
2016-10-31T10:32:46.775Z,36.82
2016-10-31T10:33:46.807Z,37.2
2016-10-31T10:34:47.140Z,35.77
2016-10-31T10:35:47.184Z,35.87
2016-10-31T10:36:47.187Z,35.66
2016-10-31T10:37:46.896Z,35.28
2016-10-31T10:38:46.922Z,35.39
2016-10-31T10:39:47.284Z,35.49
2016-10-31T10:40:47.292Z,35
2016-10-31T10:41:47.321Z,35.58
2016-10-31T10:42:47.018Z,35.68
2016-10-31T10:43:47.051Z,34.91
2016-10-31T10:44:47.070Z,34.74
2016-10-31T10:45:47.092Z,35.49
2016-10-31T10:46:47.119Z,37.12
2016-10-31T10:47:47.460Z,36.74
2016-10-31T10:48:47.485Z,35.5
2016-10-31T10:49:47.210Z,35.02
2016-10-31T10:50:47.217Z,35.79
2016-10-31T10:51:47.240Z,36.18
2016-10-31T10:52:47.582Z,34.74
2016-10-31T10:53:47.295Z,35.02
2016-10-31T10:54:47.630Z,36.18
2016-10-31T10:55:47.653Z,35.31
2016-10-31T10:56:47.366Z,35.89
2016-10-31T10:57:47.709Z,34.74
2016-10-31T10:58:47.434Z,35.31
2016-10-31T10:59:47.439Z,35.31
2016-10-31T11:00:47.778Z,33
2016-10-31T11:01:47.803Z,34.92
2016-10-31T11:02:47.512Z,34.35
2016-10-31T11:03:47.538Z,36.85
2016-10-31T11:04:47.879Z,35.5
2016-10-31T11:05:47.931Z,33.39
2016-10-31T11:06:47.613Z,37.24
2016-10-31T11:07:47.655Z,35.12
2016-10-31T11:08:47.981Z,33.97
2016-10-31T11:09:48.001Z,34.74
2016-10-31T11:10:47.712Z,36.95
2016-10-31T11:11:48.054Z,33.39
2016-10-31T11:12:48.076Z,33.97
2016-10-31T11:13:48.100Z,34.35
2016-10-31T11:14:48.135Z,33.97
2016-10-31T11:15:47.834Z,33.1
2016-10-31T11:16:48.182Z,33.48
2016-10-31T11:17:47.884Z,35.14
2016-10-31T11:18:48.228Z,32.25
2016-10-31T11:19:47.938Z,32.64
2016-10-31T11:20:48.276Z,33
2016-10-31T11:21:48.301Z,35.89
2016-10-31T11:22:48.335Z,33.87
2016-10-31T11:23:48.355Z,32.52
2016-10-31T11:24:48.060Z,34.35
2016-10-31T11:25:48.405Z,33.4
2016-10-31T11:26:48.428Z,32.15
2016-10-31T11:27:48.138Z,32.23
2016-10-31T11:28:48.163Z,32.79
2016-10-31T11:29:48.189Z,33.93
2016-10-31T11:30:48.211Z,34.14
2016-10-31T11:31:48.555Z,34.43
2016-10-31T11:32:48.263Z,34.06
2016-10-31T11:33:48.617Z,34.45
2016-10-31T11:34:48.319Z,33.1
2016-10-31T11:35:48.658Z,33.29
2016-10-31T11:36:48.674Z,33.2
2016-10-31T11:37:48.535Z,35.99
2016-10-31T11:38:48.538Z,34.74
2016-10-31T11:39:48.932Z,34.92
2016-10-31T11:40:48.460Z,34.06
2016-10-31T11:41:48.797Z,33.48
2016-10-31T11:42:48.824Z,33.2
2016-10-31T11:43:48.533Z,34.25
2016-10-31T11:44:48.568Z,34.25
2016-10-31T11:45:48.968Z,34.84
2016-10-31T11:46:48.923Z,34.46
2016-10-31T11:47:48.639Z,35.81
2016-10-31T11:48:48.990Z,35.31
2016-10-31T11:49:48.684Z,33.58
2016-10-31T11:50:48.741Z,34.45
2016-10-31T11:51:49.047Z,35.71
2016-10-31T11:52:48.762Z,34.17
2016-10-31T11:53:48.841Z,33.31
2016-10-31T11:54:48.809Z,33.89
2016-10-31T11:55:48.837Z,34.06
2016-10-31T11:56:49.179Z,35.12
2016-10-31T11:57:48.882Z,34.45
2016-10-31T11:58:49.225Z,34.74
2016-10-31T11:59:48.930Z,35.1
2016-10-31T12:00:48.951Z,35.22
2016-10-31T12:01:48.991Z,34.64
2016-10-31T12:02:49.330Z,36.08
2016-10-31T12:03:49.383Z,35.7
2016-10-31T12:04:49.374Z,35.14
2016-10-31T12:05:49.394Z,36.19
2016-10-31T12:06:49.420Z,35.91
2016-10-31T12:07:49.127Z,34.16
2016-10-31T12:08:49.464Z,34.35
2016-10-31T12:09:49.177Z,33.97
2016-10-31T12:10:49.201Z,33.77
2016-10-31T12:11:49.233Z,33.48
2016-10-31T12:12:49.567Z,34.25
2016-10-31T12:13:49.591Z,34.64
2016-10-31T12:14:49.328Z,34.92
2016-10-31T12:15:49.637Z,34.64
2016-10-31T12:16:49.348Z,35.89
2016-10-31T12:17:49.387Z,37.14
2016-10-31T12:18:49.402Z,38.7
2016-10-31T12:19:49.738Z,37.54
2016-10-31T12:20:49.484Z,37.06
2016-10-31T12:21:49.791Z,35.04
2016-10-31T12:22:49.496Z,33.98
2016-10-31T12:23:49.834Z,34.06
2016-10-31T12:24:49.547Z,34.64
2016-10-31T12:25:49.888Z,34.16
2016-10-31T12:26:49.912Z,34.83
2016-10-31T12:27:49.938Z,35.99
2016-10-31T12:28:49.645Z,37.26
2016-10-31T12:29:49.696Z,34.94
2016-10-31T12:30:49.694Z,34.16
2016-10-31T12:31:49.727Z,35.12
2016-10-31T12:32:50.063Z,34.91
2016-10-31T12:33:49.766Z,34.92
2016-10-31T12:34:50.144Z,34.64
2016-10-31T12:35:49.829Z,36.27
2016-10-31T12:36:49.845Z,37.43
2016-10-31T12:37:49.868Z,37.81
2016-10-31T12:38:49.893Z,35.24
2016-10-31T12:39:49.919Z,34.46
2016-10-31T12:40:50.262Z,33.79
2016-10-31T12:41:49.969Z,34.83
2016-10-31T12:42:50.309Z,34.83
2016-10-31T12:43:50.341Z,34.17
2016-10-31T12:44:50.044Z,34.37
2016-10-31T12:45:50.387Z,33.79
2016-10-31T12:46:50.419Z,34.17
2016-10-31T12:47:50.462Z,34.25
2016-10-31T12:48:50.486Z,35.22
2016-10-31T12:49:50.172Z,35.42
2016-10-31T12:50:50.195Z,34.75
2016-10-31T12:51:50.539Z,33.21
2016-10-31T12:52:50.247Z,33.31
2016-10-31T12:53:50.593Z,33.4
2016-10-31T12:54:50.293Z,32.64
2016-10-31T12:55:50.632Z,33.29